sensor_id;sensor_type;location;lat;lon;timestamp;pressure;altitude;pressure_sealevel;temperature;humidity
13080;BME280;6606;49.154;9.280;2023-04-04T00:02:06;100630.16;;;1.25;100.00
13080;BME280;6606;49.154;9.280;2023-04-04T00:04:50;100624.06;;;1.25;100.00
13080;BME280;6606;49.154;9.280;2023-04-04T00:07:37;100621.44;;;1.23;100.00
13080;BME280;6606;49.154;9.280;2023-04-04T00:10:19;100623.16;;;1.21;100.00
13080;BME280;6606;49.154;9.280;2023-04-04T00:13:01;100620.59;;;1.23;100.00
13080;BME280;6606;49.154;9.280;2023-04-04T00:15:44;100610.13;;;1.21;100.00
13080;BME280;6606;49.154;9.280;2023-04-04T00:18:26;100611.84;;;1.16;100.00
13080;BME280;6606;49.154;9.280;2023-04-04T00:21:08;100617.09;;;1.18;100.00
13080;BME280;6606;49.154;9.280;2023-04-04T00:23:52;100609.22;;;1.13;100.00
13080;BME280;6606;49.154;9.280;2023-04-04T00:26:35;100607.50;;;1.09;100.00
13080;BME280;6606;49.154;9.280;2023-04-04T00:29:17;100608.34;;;1.06;100.00
13080;BME280;6606;49.154;9.280;2023-04-04T00:31:59;100605.72;;;1.05;100.00
13080;BME280;6606;49.154;9.280;2023-04-04T00:34:42;100602.22;;;1.00;100.00
13080;BME280;6606;49.154;9.280;2023-04-04T00:37:24;100600.50;;;1.02;100.00
13080;BME280;6606;49.154;9.280;2023-04-04T00:40:28;100592.66;;;0.96;100.00
13080;BME280;6606;49.154;9.280;2023-04-04T00:43:13;100588.28;;;0.96;100.00
13080;BME280;6606;49.154;9.280;2023-04-04T00:45:55;100599.59;;;0.95;100.00
13080;BME280;6606;49.154;9.280;2023-04-04T00:48:37;100597.00;;;1.03;100.00
13080;BME280;6606;49.154;9.280;2023-04-04T00:51:24;100591.78;;;1.03;100.00
13080;BME280;6606;49.154;9.280;2023-04-04T00:54:06;100586.56;;;1.00;100.00
13080;BME280;6606;49.154;9.280;2023-04-04T00:56:51;100586.56;;;1.01;100.00
13080;BME280;6606;49.154;9.280;2023-04-04T00:59:34;100590.06;;;1.02;100.00
13080;BME280;6606;49.154;9.280;2023-04-04T01:02:16;100591.78;;;1.00;100.00
13080;BME280;6606;49.154;9.280;2023-04-04T01:05:02;100597.84;;;0.94;100.00
13080;BME280;6606;49.154;9.280;2023-04-04T01:07:44;100591.78;;;1.00;100.00
13080;BME280;6606;49.154;9.280;2023-04-04T01:10:26;100583.94;;;0.94;100.00
13080;BME280;6606;49.154;9.280;2023-04-04T01:13:14;100580.47;;;0.90;100.00
13080;BME280;6606;49.154;9.280;2023-04-04T01:15:57;100586.53;;;0.91;100.00
13080;BME280;6606;49.154;9.280;2023-04-04T01:18:40;100583.06;;;0.92;100.00
13080;BME280;6606;49.154;9.280;2023-04-04T01:21:23;100589.16;;;0.91;100.00
13080;BME280;6606;49.154;9.280;2023-04-04T01:24:07;100581.31;;;0.91;100.00
13080;BME280;6606;49.154;9.280;2023-04-04T01:27:02;100574.31;;;0.77;100.00
13080;BME280;6606;49.154;9.280;2023-04-04T01:29:46;100580.38;;;0.75;100.00
13080;BME280;6606;49.154;9.280;2023-04-04T01:32:35;100586.44;;;0.69;100.00
13080;BME280;6606;49.154;9.280;2023-04-04T01:35:24;100583.78;;;0.63;100.00
13080;BME280;6606;49.154;9.280;2023-04-04T01:38:17;100589.88;;;0.59;100.00
13080;BME280;6606;49.154;9.280;2023-04-04T01:41:04;100582.03;;;0.56;100.00
13080;BME280;6606;49.154;9.280;2023-04-04T01:43:51;100593.31;;;0.52;100.00
13080;BME280;6606;49.154;9.280;2023-04-04T01:46:34;100588.06;;;0.42;100.00
13080;BME280;6606;49.154;9.280;2023-04-04T01:49:16;100592.31;;;0.34;100.00
13080;BME280;6606;49.154;9.280;2023-04-04T01:51:59;100594.94;;;0.34;100.00
13080;BME280;6606;49.154;9.280;2023-04-04T01:54:41;100589.69;;;0.28;100.00
13080;BME280;6606;49.154;9.280;2023-04-04T01:57:23;100586.25;;;0.32;100.00
13080;BME280;6606;49.154;9.280;2023-04-04T02:00:09;100590.50;;;0.19;100.00
13080;BME280;6606;49.154;9.280;2023-04-04T02:02:59;100582.59;;;0.06;100.00
13080;BME280;6606;49.154;9.280;2023-04-04T02:05:41;100578.25;;;0.06;100.00
13080;BME280;6606;49.154;9.280;2023-04-04T02:08:23;100583.44;;;0.03;100.00
13080;BME280;6606;49.154;9.280;2023-04-04T02:11:09;100574.69;;;-0.07;100.00
13080;BME280;6606;49.154;9.280;2023-04-04T02:13:51;100573.78;;;-0.09;100.00
13080;BME280;6606;49.154;9.280;2023-04-04T02:16:34;100575.56;;;-0.08;100.00
13080;BME280;6606;49.154;9.280;2023-04-04T02:19:17;100579.91;;;-0.04;100.00
13080;BME280;6606;49.154;9.280;2023-04-04T02:21:59;100580.81;;;0.02;100.00
13080;BME280;6606;49.154;9.280;2023-04-04T02:24:41;100584.28;;;0.01;100.00
13080;BME280;6606;49.154;9.280;2023-04-04T02:27:23;100574.69;;;-0.07;100.00
13080;BME280;6606;49.154;9.280;2023-04-04T02:30:07;100572.06;;;-0.07;100.00
13080;BME280;6606;49.154;9.280;2023-04-04T02:32:52;100574.66;;;-0.08;100.00
13080;BME280;6606;49.154;9.280;2023-04-04T02:35:38;100570.25;;;-0.20;100.00
13080;BME280;6606;49.154;9.280;2023-04-04T02:38:20;100577.13;;;-0.27;100.00
13080;BME280;6606;49.154;9.280;2023-04-04T02:41:02;100578.84;;;-0.30;100.00
13080;BME280;6606;49.154;9.280;2023-04-04T02:43:44;100576.22;;;-0.32;100.00
13080;BME280;6606;49.154;9.280;2023-04-04T02:46:26;100580.53;;;-0.35;100.00
13080;BME280;6606;49.154;9.280;2023-04-04T02:49:15;100571.78;;;-0.40;100.00
13080;BME280;6606;49.154;9.280;2023-04-04T02:52:03;100571.75;;;-0.47;100.00
13080;BME280;6606;49.154;9.280;2023-04-04T02:54:49;100567.38;;;-0.52;100.00
13080;BME280;6606;49.154;9.280;2023-04-04T02:57:49;100575.16;;;-0.54;100.00
13080;BME280;6606;49.154;9.280;2023-04-04T03:00:31;100576.81;;;-0.62;100.00
13080;BME280;6606;49.154;9.280;2023-04-04T03:03:13;100576.81;;;-0.62;100.00
13080;BME280;6606;49.154;9.280;2023-04-04T03:05:59;100588.06;;;-0.64;100.00
13080;BME280;6606;49.154;9.280;2023-04-04T03:08:41;100576.75;;;-0.67;100.00
13080;BME280;6606;49.154;9.280;2023-04-04T03:11:24;100581.97;;;-0.68;100.00
13080;BME280;6606;49.154;9.280;2023-04-04T03:14:08;100582.75;;;-0.75;100.00
13080;BME280;6606;49.154;9.280;2023-04-04T03:16:53;100578.28;;;-0.85;100.00
13080;BME280;6606;49.154;9.280;2023-04-04T03:19:36;100578.28;;;-0.85;100.00
13080;BME280;6606;49.154;9.280;2023-04-04T03:22:19;100588.66;;;-0.92;100.00
13080;BME280;6606;49.154;9.280;2023-04-04T03:25:01;100575.53;;;-1.01;100.00
13080;BME280;6606;49.154;9.280;2023-04-04T03:27:43;100571.16;;;-1.05;100.00
13080;BME280;6606;49.154;9.280;2023-04-04T03:30:33;100573.69;;;-1.09;100.00
13080;BME280;6606;49.154;9.280;2023-04-04T03:33:16;100571.94;;;-1.14;100.00
13080;BME280;6606;49.154;9.280;2023-04-04T03:35:58;100578.00;;;-1.13;100.00
13080;BME280;6606;49.154;9.280;2023-04-04T03:38:42;100570.09;;;-1.21;100.00
13080;BME280;6606;49.154;9.280;2023-04-04T03:41:27;100569.97;;;-1.30;100.00
13080;BME280;6606;49.154;9.280;2023-04-04T03:44:10;100561.31;;;-1.32;100.00
13080;BME280;6606;49.154;9.280;2023-04-04T03:46:53;100570.78;;;-1.36;100.00
13080;BME280;6606;49.154;9.280;2023-04-04T03:49:36;100564.72;;;-1.36;100.00
13080;BME280;6606;49.154;9.280;2023-04-04T03:52:18;100570.78;;;-1.37;100.00
13080;BME280;6606;49.154;9.280;2023-04-04T03:55:04;100575.09;;;-1.36;100.00
13080;BME280;6606;49.154;9.280;2023-04-04T03:57:46;100580.28;;;-1.38;100.00
13080;BME280;6606;49.154;9.280;2023-04-04T04:00:30;100576.78;;;-1.41;100.00
13080;BME280;6606;49.154;9.280;2023-04-04T04:03:14;100581.06;;;-1.43;100.00
13080;BME280;6606;49.154;9.280;2023-04-04T04:05:56;100583.63;;;-1.46;100.00
13080;BME280;6606;49.154;9.280;2023-04-04T04:08:38;100583.56;;;-1.52;100.00
13080;BME280;6606;49.154;9.280;2023-04-04T04:11:22;100585.25;;;-1.55;100.00
13080;BME280;6606;49.154;9.280;2023-04-04T04:14:04;100586.09;;;-1.57;100.00
13080;BME280;6606;49.154;9.280;2023-04-04T04:16:46;100583.44;;;-1.62;100.00
13080;BME280;6606;49.154;9.280;2023-04-04T04:19:33;100585.19;;;-1.61;100.00
13080;BME280;6606;49.154;9.280;2023-04-04T04:22:15;100579.13;;;-1.61;100.00
13080;BME280;6606;49.154;9.280;2023-04-04T04:24:58;100582.59;;;-1.59;100.00
13080;BME280;6606;49.154;9.280;2023-04-04T04:27:42;100577.47;;;-1.56;100.00
13080;BME280;6606;49.154;9.280;2023-04-04T04:30:24;100584.44;;;-1.52;100.00
13080;BME280;6606;49.154;9.280;2023-04-04T04:33:07;100580.94;;;-1.54;100.00
13080;BME280;6606;49.154;9.280;2023-04-04T04:35:58;100584.44;;;-1.52;100.00
13080;BME280;6606;49.154;9.280;2023-04-04T04:38:43;100589.69;;;-1.47;100.00
13080;BME280;6606;49.154;9.280;2023-04-04T04:41:27;100585.28;;;-1.53;100.00
13080;BME280;6606;49.154;9.280;2023-04-04T04:44:12;100583.44;;;-1.62;100.00
13080;BME280;6606;49.154;9.280;2023-04-04T04:46:54;100581.69;;;-1.63;100.00
13080;BME280;6606;49.154;9.280;2023-04-04T04:49:36;100588.59;;;-1.65;100.00
13080;BME280;6606;49.154;9.280;2023-04-04T04:52:22;100585.13;;;-1.65;100.00
13080;BME280;6606;49.154;9.280;2023-04-04T04:55:06;100585.97;;;-1.66;100.00
13080;BME280;6606;49.154;9.280;2023-04-04T04:57:51;100589.41;;;-1.67;100.00
13080;BME280;6606;49.154;9.280;2023-04-04T05:00:39;100571.22;;;-1.67;100.00
13080;BME280;6606;49.154;9.280;2023-04-04T05:03:23;100585.91;;;-1.69;100.00
13080;BME280;6606;49.154;9.280;2023-04-04T05:06:06;100589.34;;;-1.73;100.00
13080;BME280;6606;49.154;9.280;2023-04-04T05:08:49;100583.22;;;-1.77;100.00
13080;BME280;6606;49.154;9.280;2023-04-04T05:11:44;100595.31;;;-1.78;100.00
13080;BME280;6606;49.154;9.280;2023-04-04T05:14:28;100589.34;;;-1.73;100.00
13080;BME280;6606;49.154;9.280;2023-04-04T05:17:12;100583.31;;;-1.69;100.00
13080;BME280;6606;49.154;9.280;2023-04-04T05:19:54;100589.44;;;-1.64;100.00
13080;BME280;6606;49.154;9.280;2023-04-04T05:22:41;100585.19;;;-1.59;100.00
13080;BME280;6606;49.154;9.280;2023-04-04T05:25:23;100585.25;;;-1.55;100.00
13080;BME280;6606;49.154;9.280;2023-04-04T05:28:06;100589.63;;;-1.52;100.00
13080;BME280;6606;49.154;9.280;2023-04-04T05:30:52;100586.16;;;-1.51;100.00
13080;BME280;6606;49.154;9.280;2023-04-04T05:33:43;100600.06;;;-1.49;100.00
13080;BME280;6606;49.154;9.280;2023-04-04T05:36:36;100597.50;;;-1.46;100.00
13080;BME280;6606;49.154;9.280;2023-04-04T05:39:20;100595.00;;;-1.38;100.00
13080;BME280;6606;49.154;9.280;2023-04-04T05:42:13;100607.22;;;-1.33;100.00
13080;BME280;6606;49.154;9.280;2023-04-04T05:45:01;100596.81;;;-1.33;100.00
13080;BME280;6606;49.154;9.280;2023-04-04T05:47:44;100600.41;;;-1.24;100.00
13080;BME280;6606;49.154;9.280;2023-04-04T05:50:28;100594.41;;;-1.19;100.00
13080;BME280;6606;49.154;9.280;2023-04-04T05:53:15;100602.25;;;-1.14;100.00
13080;BME280;6606;49.154;9.280;2023-04-04T05:56:00;100602.38;;;-1.05;100.00
13080;BME280;6606;49.154;9.280;2023-04-04T05:58:45;100604.22;;;-0.95;100.00
13080;BME280;6606;49.154;9.280;2023-04-04T06:01:30;100605.22;;;-0.83;100.00
13080;BME280;6606;49.154;9.280;2023-04-04T06:04:14;100608.72;;;-0.80;100.00
13080;BME280;6606;49.154;9.280;2023-04-04T06:06:57;100598.38;;;-0.72;100.00
13080;BME280;6606;49.154;9.280;2023-04-04T06:09:40;100597.59;;;-0.65;100.00
13080;BME280;6606;49.154;9.280;2023-04-04T06:12:22;100602.03;;;-0.58;100.00
13080;BME280;6606;49.154;9.280;2023-04-04T06:15:05;100598.63;;;-0.49;100.00
13080;BME280;6606;49.154;9.280;2023-04-04T06:17:47;100609.16;;;-0.38;100.00
13080;BME280;6606;49.154;9.280;2023-04-04T06:20:29;100607.53;;;-0.26;100.00
13080;BME280;6606;49.154;9.280;2023-04-04T06:23:12;100604.16;;;-0.14;100.00
13080;BME280;6606;49.154;9.280;2023-04-04T06:25:58;100599.88;;;-0.07;100.00
13080;BME280;6606;49.154;9.280;2023-04-04T06:28:49;100609.44;;;-0.03;100.00
13080;BME280;6606;49.154;9.280;2023-04-04T06:31:42;100607.88;;;0.20;100.00
13080;BME280;6606;49.154;9.280;2023-04-04T06:34:30;100593.22;;;0.38;100.00
13080;BME280;6606;49.154;9.280;2023-04-04T06:37:14;100603.72;;;0.49;100.00
13080;BME280;6606;49.154;9.280;2023-04-04T06:40:08;100602.03;;;0.57;100.00
13080;BME280;6606;49.154;9.280;2023-04-04T06:42:51;100606.44;;;0.64;100.00
13080;BME280;6606;49.154;9.280;2023-04-04T06:45:36;100602.13;;;0.81;100.00
13080;BME280;6606;49.154;9.280;2023-04-04T06:48:18;100605.69;;;0.96;100.00
13080;BME280;6606;49.154;9.280;2023-04-04T06:51:00;100603.97;;;1.01;100.00
13080;BME280;6606;49.154;9.280;2023-04-04T06:53:46;100598.78;;;1.07;100.00
13080;BME280;6606;49.154;9.280;2023-04-04T06:56:29;100605.72;;;1.11;100.00
13080;BME280;6606;49.154;9.280;2023-04-04T06:59:11;100597.03;;;1.09;100.00
13080;BME280;6606;49.154;9.280;2023-04-04T07:01:53;100597.09;;;1.27;100.00
13080;BME280;6606;49.154;9.280;2023-04-04T07:04:35;100586.66;;;1.43;100.00
13080;BME280;6606;49.154;9.280;2023-04-04T07:07:19;100597.16;;;1.55;100.00
13080;BME280;6606;49.154;9.280;2023-04-04T07:10:01;100593.66;;;1.56;100.00
13080;BME280;6606;49.154;9.280;2023-04-04T07:12:44;100593.69;;;1.81;100.00
13080;BME280;6606;49.154;9.280;2023-04-04T07:15:26;100597.16;;;1.98;100.00
13080;BME280;6606;49.154;9.280;2023-04-04T07:18:08;100598.03;;;2.03;100.00
13080;BME280;6606;49.154;9.280;2023-04-04T07:20:50;100596.25;;;2.37;100.00
13080;BME280;6606;49.154;9.280;2023-04-04T07:23:31;100596.91;;;5.69;89.89
13080;BME280;6606;49.154;9.280;2023-04-04T07:26:13;100572.06;;;8.67;49.23
13080;BME280;6606;49.154;9.280;2023-04-04T07:28:56;100575.41;;;10.91;43.31
13080;BME280;6606;49.154;9.280;2023-04-04T07:31:38;100576.00;;;10.99;38.19
13080;BME280;6606;49.154;9.280;2023-04-04T07:34:20;100567.50;;;12.03;34.95
13080;BME280;6606;49.154;9.280;2023-04-04T07:37:02;100565.16;;;12.17;33.70
13080;BME280;6606;49.154;9.280;2023-04-04T07:39:44;100557.09;;;12.60;35.66
13080;BME280;6606;49.154;9.280;2023-04-04T07:42:27;100560.97;;;13.68;32.83
13080;BME280;6606;49.154;9.280;2023-04-04T07:45:12;100544.66;;;13.37;31.13
13080;BME280;6606;49.154;9.280;2023-04-04T07:47:54;100541.59;;;13.64;31.43
13080;BME280;6606;49.154;9.280;2023-04-04T07:50:36;100555.28;;;11.55;32.60
13080;BME280;6606;49.154;9.280;2023-04-04T07:53:18;100546.00;;;12.50;31.90
13080;BME280;6606;49.154;9.280;2023-04-04T07:55:59;100557.75;;;13.61;30.24
13080;BME280;6606;49.154;9.280;2023-04-04T07:58:47;100548.25;;;14.09;30.19
13080;BME280;6606;49.154;9.280;2023-04-04T08:01:30;100547.88;;;14.85;29.25
13080;BME280;6606;49.154;9.280;2023-04-04T08:04:12;100551.84;;;13.54;29.56
13080;BME280;6606;49.154;9.280;2023-04-04T08:06:54;100543.75;;;14.44;29.04
13080;BME280;6606;49.154;9.280;2023-04-04T08:09:35;100541.91;;;14.29;29.41
13080;BME280;6606;49.154;9.280;2023-04-04T08:12:17;100544.88;;;12.15;31.21
13080;BME280;6606;49.154;9.280;2023-04-04T08:14:59;100546.97;;;10.21;33.25
13080;BME280;6606;49.154;9.280;2023-04-04T08:17:42;100559.72;;;8.35;36.33
13080;BME280;6606;49.154;9.280;2023-04-04T08:20:24;100550.66;;;7.39;39.77
13080;BME280;6606;49.154;9.280;2023-04-04T08:23:07;100552.00;;;7.18;41.24
13080;BME280;6606;49.154;9.280;2023-04-04T08:25:50;100548.88;;;6.11;42.16
13080;BME280;6606;49.154;9.280;2023-04-04T08:28:31;100542.97;;;5.98;42.14
13080;BME280;6606;49.154;9.280;2023-04-04T08:31:14;100551.84;;;5.91;43.13
13080;BME280;6606;49.154;9.280;2023-04-04T08:33:57;100557.78;;;5.48;43.76
13080;BME280;6606;49.154;9.280;2023-04-04T08:36:41;100548.94;;;5.52;42.83
13080;BME280;6606;49.154;9.280;2023-04-04T08:39:23;100551.72;;;5.43;44.64
13080;BME280;6606;49.154;9.280;2023-04-04T08:42:06;100556.47;;;5.75;42.33
13080;BME280;6606;49.154;9.280;2023-04-04T08:44:52;100551.22;;;5.75;42.02
13080;BME280;6606;49.154;9.280;2023-04-04T08:47:35;100560.38;;;6.05;41.21
13080;BME280;6606;49.154;9.280;2023-04-04T08:50:19;100546.94;;;6.22;40.23
13080;BME280;6606;49.154;9.280;2023-04-04T08:53:01;100545.88;;;6.31;41.51
13080;BME280;6606;49.154;9.280;2023-04-04T08:55:44;100549.31;;;6.36;39.58
13080;BME280;6606;49.154;9.280;2023-04-04T08:58:26;100548.31;;;6.43;41.15
13080;BME280;6606;49.154;9.280;2023-04-04T09:01:08;100542.81;;;6.54;41.27
13080;BME280;6606;49.154;9.280;2023-04-04T09:03:52;100558.50;;;6.60;41.00
13080;BME280;6606;49.154;9.280;2023-04-04T09:06:35;100554.69;;;6.30;40.86
13080;BME280;6606;49.154;9.280;2023-04-04T09:09:18;100545.63;;;6.88;40.37
13080;BME280;6606;49.154;9.280;2023-04-04T09:12:00;100556.00;;;6.52;39.58
13080;BME280;6606;49.154;9.280;2023-04-04T09:14:43;100543.41;;;6.67;41.29
13080;BME280;6606;49.154;9.280;2023-04-04T09:17:26;100542.81;;;6.54;39.26
13080;BME280;6606;49.154;9.280;2023-04-04T09:20:38;100546.56;;;7.26;38.04
13080;BME280;6606;49.154;9.280;2023-04-04T09:23:22;100540.59;;;7.18;40.15
13080;BME280;6606;49.154;9.280;2023-04-04T09:26:05;100544.06;;;7.20;39.87
13080;BME280;6606;49.154;9.280;2023-04-04T09:28:51;100542.38;;;7.55;38.83
13080;BME280;6606;49.154;9.280;2023-04-04T09:31:33;100536.13;;;7.59;39.50
13080;BME280;6606;49.154;9.280;2023-04-04T09:34:16;100534.78;;;8.12;36.61
13080;BME280;6606;49.154;9.280;2023-04-04T09:36:58;100526.16;;;8.06;37.24
13080;BME280;6606;49.154;9.280;2023-04-04T09:39:42;100533.44;;;8.63;37.78
13080;BME280;6606;49.154;9.280;2023-04-04T09:42:26;100536.63;;;7.75;38.25
13080;BME280;6606;49.154;9.280;2023-04-04T09:45:08;100526.22;;;8.03;38.60
13080;BME280;6606;49.154;9.280;2023-04-04T09:47:50;100540.00;;;8.14;39.54
13080;BME280;6606;49.154;9.280;2023-04-04T09:50:32;100537.84;;;7.96;38.00
13080;BME280;6606;49.154;9.280;2023-04-04T09:53:15;100530.09;;;7.89;38.01
13080;BME280;6606;49.154;9.280;2023-04-04T09:55:59;100536.69;;;8.07;38.75
13080;BME280;6606;49.154;9.280;2023-04-04T09:58:45;100538.41;;;7.72;37.23
13080;BME280;6606;49.154;9.280;2023-04-04T10:01:27;100535.59;;;7.44;38.78
13080;BME280;6606;49.154;9.280;2023-04-04T10:04:09;100542.41;;;7.53;38.41
13080;BME280;6606;49.154;9.280;2023-04-04T10:06:52;100530.25;;;7.46;37.52
13080;BME280;6606;49.154;9.280;2023-04-04T10:09:36;100538.06;;;7.51;37.35
13080;BME280;6606;49.154;9.280;2023-04-04T10:12:22;100526.78;;;7.81;37.61
13080;BME280;6606;49.154;9.280;2023-04-04T10:15:06;100533.91;;;7.78;38.72
13080;BME280;6606;49.154;9.280;2023-04-04T10:17:49;100540.34;;;7.66;38.49
13080;BME280;6606;49.154;9.280;2023-04-04T10:20:33;100527.56;;;7.85;39.15
13080;BME280;6606;49.154;9.280;2023-04-04T10:23:15;100535.28;;;7.92;37.26
13080;BME280;6606;49.154;9.280;2023-04-04T10:25:58;100525.97;;;8.12;37.52
13080;BME280;6606;49.154;9.280;2023-04-04T10:28:42;100526.69;;;8.19;36.16
13080;BME280;6606;49.154;9.280;2023-04-04T10:31:24;100527.38;;;7.92;37.04
13080;BME280;6606;49.154;9.280;2023-04-04T10:34:11;100519.84;;;7.77;37.66
13080;BME280;6606;49.154;9.280;2023-04-04T10:36:57;100526.16;;;8.06;38.92
13080;BME280;6606;49.154;9.280;2023-04-04T10:39:49;100509.91;;;8.21;37.24
13080;BME280;6606;49.154;9.280;2023-04-04T10:42:37;100515.19;;;8.84;36.96
13080;BME280;6606;49.154;9.280;2023-04-04T10:45:20;100513.69;;;8.75;35.86
13080;BME280;6606;49.154;9.280;2023-04-04T10:48:03;100520.50;;;8.84;35.44
13080;BME280;6606;49.154;9.280;2023-04-04T10:50:45;100518.34;;;8.67;36.16
13080;BME280;6606;49.154;9.280;2023-04-04T10:53:28;100525.88;;;8.80;36.21
13080;BME280;6606;49.154;9.280;2023-04-04T10:56:10;100508.69;;;8.95;37.18
13080;BME280;6606;49.154;9.280;2023-04-04T10:59:13;100512.16;;;8.97;36.77
13080;BME280;6606;49.154;9.280;2023-04-04T11:01:57;100502.34;;;9.57;38.39
13080;BME280;6606;49.154;9.280;2023-04-04T11:04:45;100501.53;;;9.55;36.79
13080;BME280;6606;49.154;9.280;2023-04-04T11:07:27;100512.78;;;9.88;36.04
13080;BME280;6606;49.154;9.280;2023-04-04T11:10:13;100505.06;;;9.28;36.99
13080;BME280;6606;49.154;9.280;2023-04-04T11:12:56;100501.09;;;9.13;37.52
13080;BME280;6606;49.154;9.280;2023-04-04T11:15:44;100498.94;;;8.97;36.76
13080;BME280;6606;49.154;9.280;2023-04-04T11:18:46;100492.94;;;8.92;37.18
13080;BME280;6606;49.154;9.280;2023-04-04T11:21:31;100497.84;;;9.33;36.70
13080;BME280;6606;49.154;9.280;2023-04-04T11:24:13;100499.38;;;9.12;37.01
13080;BME280;6606;49.154;9.280;2023-04-04T11:26:56;100500.22;;;9.14;36.06
13080;BME280;6606;49.154;9.280;2023-04-04T11:29:49;100503.81;;;9.11;36.90
13080;BME280;6606;49.154;9.280;2023-04-04T11:32:40;100497.44;;;8.89;37.24
13080;BME280;6606;49.154;9.280;2023-04-04T11:35:24;100484.00;;;9.24;36.38
13080;BME280;6606;49.154;9.280;2023-04-04T11:38:11;100492.66;;;9.30;35.52
13080;BME280;6606;49.154;9.280;2023-04-04T11:40:54;100489.59;;;8.86;36.48
13080;BME280;6606;49.154;9.280;2023-04-04T11:43:43;100478.50;;;9.31;35.97
13080;BME280;6606;49.154;9.280;2023-04-04T11:46:27;100486.19;;;9.10;36.20
13080;BME280;6606;49.154;9.280;2023-04-04T11:49:09;100483.75;;;9.04;35.77
13080;BME280;6606;49.154;9.280;2023-04-04T11:51:53;100472.72;;;9.18;35.58
13080;BME280;6606;49.154;9.280;2023-04-04T11:54:35;100481.94;;;9.34;36.69
13080;BME280;6606;49.154;9.280;2023-04-04T11:57:19;100475.91;;;9.01;36.17
13080;BME280;6606;49.154;9.280;2023-04-04T12:00:01;100469.75;;;9.00;36.00
13080;BME280;6606;49.154;9.280;2023-04-04T12:02:50;100470.66;;;9.28;37.14
13080;BME280;6606;49.154;9.280;2023-04-04T12:05:33;100461.75;;;9.58;35.67
13080;BME280;6606;49.154;9.280;2023-04-04T12:08:16;100457.91;;;9.40;36.01
13080;BME280;6606;49.154;9.280;2023-04-04T12:11:03;100461.53;;;9.64;35.00
13080;BME280;6606;49.154;9.280;2023-04-04T12:13:44;100463.44;;;9.86;35.10
13080;BME280;6606;49.154;9.280;2023-04-04T12:16:28;100451.72;;;9.93;35.25
13080;BME280;6606;49.154;9.280;2023-04-04T12:19:10;100445.94;;;9.82;34.38
13080;BME280;6606;49.154;9.280;2023-04-04T12:21:55;100458.47;;;10.27;33.00
13080;BME280;6606;49.154;9.280;2023-04-04T12:24:39;100450.59;;;10.24;36.06
13080;BME280;6606;49.154;9.280;2023-04-04T12:27:21;100451.50;;;9.99;36.50
13080;BME280;6606;49.154;9.280;2023-04-04T12:30:03;100436.84;;;9.89;35.64
13080;BME280;6606;49.154;9.280;2023-04-04T12:32:50;100437.56;;;10.19;35.98
13080;BME280;6606;49.154;9.280;2023-04-04T12:35:32;100439.03;;;10.28;35.09
13080;BME280;6606;49.154;9.280;2023-04-04T12:38:15;100436.34;;;10.03;36.59
13080;BME280;6606;49.154;9.280;2023-04-04T12:40:59;100429.25;;;10.30;35.82
13080;BME280;6606;49.154;9.280;2023-04-04T12:43:41;100422.59;;;10.42;34.36
13080;BME280;6606;49.154;9.280;2023-04-04T12:46:25;100426.88;;;10.21;37.45
13080;BME280;6606;49.154;9.280;2023-04-04T12:49:10;100426.31;;;10.38;36.16
13080;BME280;6606;49.154;9.280;2023-04-04T12:51:52;100419.16;;;9.89;34.90
13080;BME280;6606;49.154;9.280;2023-04-04T12:54:38;100433.00;;;10.23;34.56
13080;BME280;6606;49.154;9.280;2023-04-04T12:57:23;100414.22;;;10.76;35.27
13080;BME280;6606;49.154;9.280;2023-04-04T13:00:06;100418.28;;;10.39;34.96
13080;BME280;6606;49.154;9.280;2023-04-04T13:02:49;100446.84;;;10.06;33.57
13080;BME280;6606;49.154;9.280;2023-04-04T13:05:32;100424.84;;;9.79;35.34
13080;BME280;6606;49.154;9.280;2023-04-04T13:08:16;100409.47;;;9.90;36.65
13080;BME280;6606;49.154;9.280;2023-04-04T13:10:59;100400.16;;;10.03;34.92
13080;BME280;6606;49.154;9.280;2023-04-04T13:13:44;100394.41;;;10.16;36.60
13080;BME280;6606;49.154;9.280;2023-04-04T13:16:31;100403.16;;;10.43;36.07
13080;BME280;6606;49.154;9.280;2023-04-04T13:19:13;100407.28;;;10.01;37.56
13080;BME280;6606;49.154;9.280;2023-04-04T13:21:55;100401.25;;;10.21;36.39
13080;BME280;6606;49.154;9.280;2023-04-04T13:24:37;100405.56;;;10.24;35.99
13080;BME280;6606;49.154;9.280;2023-04-04T13:27:19;100403.94;;;9.96;35.23
13080;BME280;6606;49.154;9.280;2023-04-04T13:30:07;100400.00;;;9.83;35.43
13080;BME280;6606;49.154;9.280;2023-04-04T13:32:57;100389.56;;;9.78;36.19
13080;BME280;6606;49.154;9.280;2023-04-04T13:35:41;100381.22;;;10.14;35.53
13080;BME280;6606;49.154;9.280;2023-04-04T13:38:23;100369.88;;;10.57;35.77
13080;BME280;6606;49.154;9.280;2023-04-04T13:41:04;100370.03;;;10.98;34.69
13080;BME280;6606;49.154;9.280;2023-04-04T13:43:46;100382.09;;;10.84;35.63
13080;BME280;6606;49.154;9.280;2023-04-04T13:46:29;100372.28;;;10.64;35.48
13080;BME280;6606;49.154;9.280;2023-04-04T13:49:11;100376.28;;;10.74;35.09
13080;BME280;6606;49.154;9.280;2023-04-04T13:51:54;100350.97;;;10.67;34.90
13080;BME280;6606;49.154;9.280;2023-04-04T13:54:36;100388.00;;;9.98;35.50
13080;BME280;6606;49.154;9.280;2023-04-04T13:57:17;100374.34;;;9.85;36.31
13080;BME280;6606;49.154;9.280;2023-04-04T13:59:59;100368.28;;;10.53;35.23
13080;BME280;6606;49.154;9.280;2023-04-04T14:02:42;100368.44;;;10.49;35.55
13080;BME280;6606;49.154;9.280;2023-04-04T14:05:24;100385.44;;;10.67;36.50
13080;BME280;6606;49.154;9.280;2023-04-04T14:08:06;100370.69;;;10.60;35.96
13080;BME280;6606;49.154;9.280;2023-04-04T14:10:48;100371.00;;;10.74;34.85
13080;BME280;6606;49.154;9.280;2023-04-04T14:13:29;100369.41;;;10.92;34.86
13080;BME280;6606;49.154;9.280;2023-04-04T14:16:12;100356.81;;;10.97;35.06
13080;BME280;6606;49.154;9.280;2023-04-04T14:18:55;100355.94;;;11.39;33.70
13080;BME280;6606;49.154;9.280;2023-04-04T14:21:37;100359.59;;;11.36;34.92
13080;BME280;6606;49.154;9.280;2023-04-04T14:24:18;100379.50;;;10.60;35.85
13080;BME280;6606;49.154;9.280;2023-04-04T14:27:01;100373.94;;;9.96;36.16
13080;BME280;6606;49.154;9.280;2023-04-04T14:29:42;100383.84;;;9.90;37.36